sensor_id;sensor_type;location;lat;lon;timestamp;P1;durP1;ratioP1;P2;durP2;ratioP2
53503;SDS011;39387;50.998;22.340;2022-07-23T00:00:23;13.25;;;8.65;;
53503;SDS011;39387;50.998;22.340;2022-07-23T00:03:03;14.32;;;9.30;;
53503;SDS011;39387;50.998;22.340;2022-07-23T00:05:31;11.80;;;8.52;;
53503;SDS011;39387;50.998;22.340;2022-07-23T00:07:58;10.57;;;8.60;;
53503;SDS011;39387;50.998;22.340;2022-07-23T00:10:25;12.13;;;9.07;;
53503;SDS011;39387;50.998;22.340;2022-07-23T00:12:53;13.77;;;9.55;;
53503;SDS011;39387;50.998;22.340;2022-07-23T00:15:21;11.88;;;9.15;;
53503;SDS011;39387;50.998;22.340;2022-07-23T00:17:49;10.98;;;8.45;;
53503;SDS011;39387;50.998;22.340;2022-07-23T00:20:16;11.15;;;8.45;;
53503;SDS011;39387;50.998;22.340;2022-07-23T00:22:47;11.05;;;8.73;;
53503;SDS011;39387;50.998;22.340;2022-07-23T00:25:14;10.82;;;8.32;;
53503;SDS011;39387;50.998;22.340;2022-07-23T00:27:42;11.48;;;8.75;;
53503;SDS011;39387;50.998;22.340;2022-07-23T00:30:10;10.05;;;8.73;;
53503;SDS011;39387;50.998;22.340;2022-07-23T00:32:46;12.18;;;8.93;;
53503;SDS011;39387;50.998;22.340;2022-07-23T00:35:14;11.00;;;9.25;;
53503;SDS011;39387;50.998;22.340;2022-07-23T00:37:41;12.20;;;8.80;;
53503;SDS011;39387;50.998;22.340;2022-07-23T00:40:09;11.98;;;9.57;;
53503;SDS011;39387;50.998;22.340;2022-07-23T00:42:38;11.30;;;9.48;;
53503;SDS011;39387;50.998;22.340;2022-07-23T00:45:06;13.15;;;8.43;;
53503;SDS011;39387;50.998;22.340;2022-07-23T00:47:34;12.77;;;9.70;;
53503;SDS011;39387;50.998;22.340;2022-07-23T00:50:04;11.43;;;9.13;;
53503;SDS011;39387;50.998;22.340;2022-07-23T00:52:33;10.80;;;9.00;;
53503;SDS011;39387;50.998;22.340;2022-07-23T00:55:01;13.98;;;10.07;;
53503;SDS011;39387;50.998;22.340;2022-07-23T00:57:29;13.48;;;9.82;;
53503;SDS011;39387;50.998;22.340;2022-07-23T00:59:56;12.23;;;9.65;;
53503;SDS011;39387;50.998;22.340;2022-07-23T01:02:23;14.55;;;9.90;;
53503;SDS011;39387;50.998;22.340;2022-07-23T01:04:51;10.82;;;8.75;;
53503;SDS011;39387;50.998;22.340;2022-07-23T01:07:20;14.43;;;8.93;;
53503;SDS011;39387;50.998;22.340;2022-07-23T01:09:49;11.52;;;9.05;;
53503;SDS011;39387;50.998;22.340;2022-07-23T01:12:18;12.48;;;9.75;;
53503;SDS011;39387;50.998;22.340;2022-07-23T01:14:45;12.88;;;9.55;;
53503;SDS011;39387;50.998;22.340;2022-07-23T01:17:12;12.90;;;9.15;;
53503;SDS011;39387;50.998;22.340;2022-07-23T01:19:40;14.55;;;10.48;;
53503;SDS011;39387;50.998;22.340;2022-07-23T01:22:07;12.75;;;9.98;;
53503;SDS011;39387;50.998;22.340;2022-07-23T01:24:36;12.70;;;10.07;;
53503;SDS011;39387;50.998;22.340;2022-07-23T01:27:03;13.07;;;10.18;;
53503;SDS011;39387;50.998;22.340;2022-07-23T01:29:31;15.23;;;10.50;;
53503;SDS011;39387;50.998;22.340;2022-07-23T01:31:59;14.27;;;10.43;;
53503;SDS011;39387;50.998;22.340;2022-07-23T01:34:26;13.75;;;9.43;;
53503;SDS011;39387;50.998;22.340;2022-07-23T01:36:53;12.80;;;9.60;;
53503;SDS011;39387;50.998;22.340;2022-07-23T01:39:20;11.02;;;9.13;;
53503;SDS011;39387;50.998;22.340;2022-07-23T01:41:49;12.25;;;10.07;;
53503;SDS011;39387;50.998;22.340;2022-07-23T01:44:17;12.15;;;9.35;;
53503;SDS011;39387;50.998;22.340;2022-07-23T01:46:44;11.10;;;9.15;;
53503;SDS011;39387;50.998;22.340;2022-07-23T01:49:11;13.82;;;10.15;;
53503;SDS011;39387;50.998;22.340;2022-07-23T01:51:38;13.60;;;9.98;;
53503;SDS011;39387;50.998;22.340;2022-07-23T01:54:25;13.80;;;9.48;;
53503;SDS011;39387;50.998;22.340;2022-07-23T01:56:53;11.75;;;9.63;;
53503;SDS011;39387;50.998;22.340;2022-07-23T01:59:21;14.43;;;9.82;;
53503;SDS011;39387;50.998;22.340;2022-07-23T02:01:49;14.43;;;9.98;;
53503;SDS011;39387;50.998;22.340;2022-07-23T02:04:16;13.40;;;10.35;;
53503;SDS011;39387;50.998;22.340;2022-07-23T02:06:44;14.50;;;10.18;;
53503;SDS011;39387;50.998;22.340;2022-07-23T02:09:11;13.65;;;10.32;;
53503;SDS011;39387;50.998;22.340;2022-07-23T02:11:38;12.02;;;9.65;;
53503;SDS011;39387;50.998;22.340;2022-07-23T02:14:07;13.40;;;10.18;;
53503;SDS011;39387;50.998;22.340;2022-07-23T02:16:35;13.85;;;10.63;;
53503;SDS011;39387;50.998;22.340;2022-07-23T02:19:02;14.50;;;10.98;;
53503;SDS011;39387;50.998;22.340;2022-07-23T02:21:29;12.30;;;9.68;;
53503;SDS011;39387;50.998;22.340;2022-07-23T02:23:57;13.40;;;9.60;;
53503;SDS011;39387;50.998;22.340;2022-07-23T02:26:24;14.75;;;10.07;;
53503;SDS011;39387;50.998;22.340;2022-07-23T02:28:51;14.32;;;10.57;;
53503;SDS011;39387;50.998;22.340;2022-07-23T02:31:21;15.25;;;9.98;;
53503;SDS011;39387;50.998;22.340;2022-07-23T02:33:48;13.23;;;10.68;;
53503;SDS011;39387;50.998;22.340;2022-07-23T02:36:15;13.43;;;10.07;;
53503;SDS011;39387;50.998;22.340;2022-07-23T02:38:42;15.57;;;10.80;;
53503;SDS011;39387;50.998;22.340;2022-07-23T02:41:10;14.40;;;10.25;;
53503;SDS011;39387;50.998;22.340;2022-07-23T02:43:37;14.82;;;11.05;;
53503;SDS011;39387;50.998;22.340;2022-07-23T02:46:04;15.00;;;10.48;;
53503;SDS011;39387;50.998;22.340;2022-07-23T02:48:33;14.88;;;10.55;;
53503;SDS011;39387;50.998;22.340;2022-07-23T02:51:00;15.93;;;11.07;;
53503;SDS011;39387;50.998;22.340;2022-07-23T02:53:28;14.57;;;10.90;;
53503;SDS011;39387;50.998;22.340;2022-07-23T02:55:55;19.33;;;12.18;;
53503;SDS011;39387;50.998;22.340;2022-07-23T02:58:25;16.58;;;11.65;;
53503;SDS011;39387;50.998;22.340;2022-07-23T03:00:52;13.90;;;12.05;;
53503;SDS011;39387;50.998;22.340;2022-07-23T03:03:20;17.90;;;11.75;;
53503;SDS011;39387;50.998;22.340;2022-07-23T03:05:49;14.88;;;11.13;;
53503;SDS011;39387;50.998;22.340;2022-07-23T03:08:16;16.88;;;11.88;;
53503;SDS011;39387;50.998;22.340;2022-07-23T03:10:43;16.38;;;11.82;;
53503;SDS011;39387;50.998;22.340;2022-07-23T03:13:11;18.00;;;11.75;;
53503;SDS011;39387;50.998;22.340;2022-07-23T03:15:38;14.18;;;10.60;;
53503;SDS011;39387;50.998;22.340;2022-07-23T03:18:05;16.27;;;11.20;;
53503;SDS011;39387;50.998;22.340;2022-07-23T03:20:32;13.95;;;10.70;;
53503;SDS011;39387;50.998;22.340;2022-07-23T03:23:01;16.50;;;11.43;;
53503;SDS011;39387;50.998;22.340;2022-07-23T03:25:28;14.90;;;10.57;;
53503;SDS011;39387;50.998;22.340;2022-07-23T03:27:56;13.18;;;10.50;;
53503;SDS011;39387;50.998;22.340;2022-07-23T03:30:23;15.40;;;10.75;;
53503;SDS011;39387;50.998;22.340;2022-07-23T03:32:51;14.95;;;10.70;;
53503;SDS011;39387;50.998;22.340;2022-07-23T03:35:18;15.02;;;10.13;;
53503;SDS011;39387;50.998;22.340;2022-07-23T03:37:45;13.95;;;10.88;;
53503;SDS011;39387;50.998;22.340;2022-07-23T03:40:14;13.75;;;9.95;;
53503;SDS011;39387;50.998;22.340;2022-07-23T03:42:41;12.40;;;10.35;;
53503;SDS011;39387;50.998;22.340;2022-07-23T03:45:09;11.45;;;9.48;;
53503;SDS011;39387;50.998;22.340;2022-07-23T03:47:36;16.30;;;10.27;;
53503;SDS011;39387;50.998;22.340;2022-07-23T03:50:04;14.48;;;10.60;;
53503;SDS011;39387;50.998;22.340;2022-07-23T03:52:32;13.15;;;9.90;;
53503;SDS011;39387;50.998;22.340;2022-07-23T03:55:00;16.75;;;10.88;;
53503;SDS011;39387;50.998;22.340;2022-07-23T03:57:29;13.80;;;10.60;;
53503;SDS011;39387;50.998;22.340;2022-07-23T03:59:56;13.63;;;10.65;;
53503;SDS011;39387;50.998;22.340;2022-07-23T04:02:23;12.52;;;10.63;;
53503;SDS011;39387;50.998;22.340;2022-07-23T04:04:51;14.40;;;10.77;;
53503;SDS011;39387;50.998;22.340;2022-07-23T04:07:18;11.30;;;10.07;;
53503;SDS011;39387;50.998;22.340;2022-07-23T04:09:47;13.32;;;10.43;;
53503;SDS011;39387;50.998;22.340;2022-07-23T04:12:14;18.08;;;11.23;;
53503;SDS011;39387;50.998;22.340;2022-07-23T04:14:43;13.80;;;10.80;;
53503;SDS011;39387;50.998;22.340;2022-07-23T04:17:10;12.25;;;10.20;;
53503;SDS011;39387;50.998;22.340;2022-07-23T04:19:38;14.10;;;10.38;;
53503;SDS011;39387;50.998;22.340;2022-07-23T04:22:07;12.32;;;10.38;;
53503;SDS011;39387;50.998;22.340;2022-07-23T04:24:34;16.45;;;11.85;;
53503;SDS011;39387;50.998;22.340;2022-07-23T04:27:02;14.52;;;12.15;;
53503;SDS011;39387;50.998;22.340;2022-07-23T04:29:29;18.80;;;13.32;;
53503;SDS011;39387;50.998;22.340;2022-07-23T04:31:58;19.90;;;14.13;;
53503;SDS011;39387;50.998;22.340;2022-07-23T04:34:25;17.85;;;14.45;;
53503;SDS011;39387;50.998;22.340;2022-07-23T04:36:53;18.73;;;13.77;;
53503;SDS011;39387;50.998;22.340;2022-07-23T04:39:20;14.52;;;11.73;;
53503;SDS011;39387;50.998;22.340;2022-07-23T04:41:47;11.25;;;10.10;;
53503;SDS011;39387;50.998;22.340;2022-07-23T04:44:15;11.48;;;9.80;;
53503;SDS011;39387;50.998;22.340;2022-07-23T04:46:42;12.25;;;10.18;;
53503;SDS011;39387;50.998;22.340;2022-07-23T04:49:11;13.50;;;10.20;;
53503;SDS011;39387;50.998;22.340;2022-07-23T04:51:38;13.52;;;10.32;;
53503;SDS011;39387;50.998;22.340;2022-07-23T04:54:05;12.10;;;10.48;;
53503;SDS011;39387;50.998;22.340;2022-07-23T04:56:32;11.10;;;9.90;;
53503;SDS011;39387;50.998;22.340;2022-07-23T04:59:00;11.93;;;9.82;;
53503;SDS011;39387;50.998;22.340;2022-07-23T05:01:27;11.93;;;9.60;;
53503;SDS011;39387;50.998;22.340;2022-07-23T05:03:54;10.27;;;9.27;;
53503;SDS011;39387;50.998;22.340;2022-07-23T05:06:23;10.20;;;8.68;;
53503;SDS011;39387;50.998;22.340;2022-07-23T05:08:50;10.10;;;9.10;;
53503;SDS011;39387;50.998;22.340;2022-07-23T05:11:18;9.77;;;8.88;;
53503;SDS011;39387;50.998;22.340;2022-07-23T05:13:45;10.75;;;9.38;;
53503;SDS011;39387;50.998;22.340;2022-07-23T05:16:12;9.82;;;8.88;;
53503;SDS011;39387;50.998;22.340;2022-07-23T05:18:39;9.85;;;8.95;;
53503;SDS011;39387;50.998;22.340;2022-07-23T05:21:07;10.45;;;9.25;;
53503;SDS011;39387;50.998;22.340;2022-07-23T05:23:36;10.52;;;9.63;;
53503;SDS011;39387;50.998;22.340;2022-07-23T05:26:03;10.32;;;9.32;;
53503;SDS011;39387;50.998;22.340;2022-07-23T05:28:31;10.80;;;9.77;;
53503;SDS011;39387;50.998;22.340;2022-07-23T05:30:58;9.88;;;8.98;;
53503;SDS011;39387;50.998;22.340;2022-07-23T05:33:25;9.93;;;8.98;;
53503;SDS011;39387;50.998;22.340;2022-07-23T05:35:53;9.90;;;9.00;;
53503;SDS011;39387;50.998;22.340;2022-07-23T05:38:20;10.35;;;9.32;;
53503;SDS011;39387;50.998;22.340;2022-07-23T05:40:48;10.13;;;9.13;;
53503;SDS011;39387;50.998;22.340;2022-07-23T05:43:16;9.52;;;8.52;;
53503;SDS011;39387;50.998;22.340;2022-07-23T05:45:43;9.45;;;8.45;;
53503;SDS011;39387;50.998;22.340;2022-07-23T05:48:10;9.35;;;8.20;;
53503;SDS011;39387;50.998;22.340;2022-07-23T05:50:38;9.30;;;8.40;;
53503;SDS011;39387;50.998;22.340;2022-07-23T05:53:05;8.77;;;7.97;;
53503;SDS011;39387;50.998;22.340;2022-07-23T05:55:32;8.98;;;8.07;;
53503;SDS011;39387;50.998;22.340;2022-07-23T05:58:01;8.75;;;7.82;;
53503;SDS011;39387;50.998;22.340;2022-07-23T06:00:29;9.95;;;8.35;;
53503;SDS011;39387;50.998;22.340;2022-07-23T06:02:56;9.57;;;8.57;;
53503;SDS011;39387;50.998;22.340;2022-07-23T06:05:24;8.57;;;7.45;;
53503;SDS011;39387;50.998;22.340;2022-07-23T06:07:51;9.13;;;8.23;;
53503;SDS011;39387;50.998;22.340;2022-07-23T06:10:18;8.55;;;7.68;;
53503;SDS011;39387;50.998;22.340;2022-07-23T06:12:46;8.85;;;7.95;;
53503;SDS011;39387;50.998;22.340;2022-07-23T06:15:14;9.63;;;8.30;;
53503;SDS011;39387;50.998;22.340;2022-07-23T06:17:42;7.97;;;7.25;;
53503;SDS011;39387;50.998;22.340;2022-07-23T06:20:09;8.55;;;7.65;;
53503;SDS011;39387;50.998;22.340;2022-07-23T06:22:37;9.35;;;7.45;;
53503;SDS011;39387;50.998;22.340;2022-07-23T06:25:05;9.60;;;7.95;;
53503;SDS011;39387;50.998;22.340;2022-07-23T06:27:33;8.23;;;7.53;;
53503;SDS011;39387;50.998;22.340;2022-07-23T06:30:00;8.57;;;7.53;;
53503;SDS011;39387;50.998;22.340;2022-07-23T06:32:29;8.15;;;7.35;;
53503;SDS011;39387;50.998;22.340;2022-07-23T06:34:57;8.90;;;7.93;;
53503;SDS011;39387;50.998;22.340;2022-07-23T06:37:24;9.32;;;7.75;;
53503;SDS011;39387;50.998;22.340;2022-07-23T06:39:51;8.88;;;8.07;;
53503;SDS011;39387;50.998;22.340;2022-07-23T06:42:18;8.68;;;7.88;;
53503;SDS011;39387;50.998;22.340;2022-07-23T06:44:45;9.38;;;8.18;;
53503;SDS011;39387;50.998;22.340;2022-07-23T06:47:13;10.40;;;7.93;;
53503;SDS011;39387;50.998;22.340;2022-07-23T06:49:42;9.48;;;8.48;;
53503;SDS011;39387;50.998;22.340;2022-07-23T06:52:09;8.60;;;7.80;;
53503;SDS011;39387;50.998;22.340;2022-07-23T06:54:36;9.43;;;8.20;;
53503;SDS011;39387;50.998;22.340;2022-07-23T06:57:04;8.88;;;8.07;;
53503;SDS011;39387;50.998;22.340;2022-07-23T06:59:31;8.27;;;7.47;;
53503;SDS011;39387;50.998;22.340;2022-07-23T07:01:58;8.60;;;7.75;;
53503;SDS011;39387;50.998;22.340;2022-07-23T07:04:26;8.98;;;8.05;;
53503;SDS011;39387;50.998;22.340;2022-07-23T07:06:54;8.63;;;7.40;;
53503;SDS011;39387;50.998;22.340;2022-07-23T07:09:21;9.18;;;7.70;;
53503;SDS011;39387;50.998;22.340;2022-07-23T07:11:49;8.13;;;7.43;;
53503;SDS011;39387;50.998;22.340;2022-07-23T07:14:16;8.48;;;7.60;;
53503;SDS011;39387;50.998;22.340;2022-07-23T07:16:43;7.95;;;7.25;;
53503;SDS011;39387;50.998;22.340;2022-07-23T07:19:11;9.77;;;7.95;;
53503;SDS011;39387;50.998;22.340;2022-07-23T07:21:38;9.00;;;7.90;;
53503;SDS011;39387;50.998;22.340;2022-07-23T07:24:07;8.73;;;7.78;;
53503;SDS011;39387;50.998;22.340;2022-07-23T07:26:35;8.10;;;7.22;;
53503;SDS011;39387;50.998;22.340;2022-07-23T07:29:04;7.63;;;6.93;;
53503;SDS011;39387;50.998;22.340;2022-07-23T07:31:31;7.55;;;6.85;;
53503;SDS011;39387;50.998;22.340;2022-07-23T07:33:59;8.27;;;7.30;;
53503;SDS011;39387;50.998;22.340;2022-07-23T07:36:26;8.00;;;7.30;;
53503;SDS011;39387;50.998;22.340;2022-07-23T07:38:53;8.02;;;6.85;;
53503;SDS011;39387;50.998;22.340;2022-07-23T07:41:22;8.30;;;7.47;;
53503;SDS011;39387;50.998;22.340;2022-07-23T07:43:51;8.02;;;7.32;;
53503;SDS011;39387;50.998;22.340;2022-07-23T07:46:19;7.88;;;7.18;;
53503;SDS011;39387;50.998;22.340;2022-07-23T07:48:46;9.18;;;7.38;;
53503;SDS011;39387;50.998;22.340;2022-07-23T07:51:13;7.68;;;6.97;;
53503;SDS011;39387;50.998;22.340;2022-07-23T07:53:41;8.05;;;7.28;;
53503;SDS011;39387;50.998;22.340;2022-07-23T07:56:09;8.32;;;6.75;;
53503;SDS011;39387;50.998;22.340;2022-07-23T07:58:38;7.72;;;7.03;;
53503;SDS011;39387;50.998;22.340;2022-07-23T08:01:05;7.93;;;7.20;;
53503;SDS011;39387;50.998;22.340;2022-07-23T08:03:33;8.20;;;7.40;;
53503;SDS011;39387;50.998;22.340;2022-07-23T08:06:00;8.57;;;7.65;;
53503;SDS011;39387;50.998;22.340;2022-07-23T08:08:28;7.85;;;7.15;;
53503;SDS011;39387;50.998;22.340;2022-07-23T08:10:55;8.85;;;7.30;;
53503;SDS011;39387;50.998;22.340;2022-07-23T08:13:23;8.25;;;7.55;;
53503;SDS011;39387;50.998;22.340;2022-07-23T08:15:51;8.25;;;7.50;;
53503;SDS011;39387;50.998;22.340;2022-07-23T08:18:19;9.85;;;7.20;;
53503;SDS011;39387;50.998;22.340;2022-07-23T08:20:47;8.50;;;7.80;;
53503;SDS011;39387;50.998;22.340;2022-07-23T08:23:14;8.80;;;8.00;;
53503;SDS011;39387;50.998;22.340;2022-07-23T08:25:45;7.85;;;7.25;;
53503;SDS011;39387;50.998;22.340;2022-07-23T08:28:13;9.00;;;8.10;;
53503;SDS011;39387;50.998;22.340;2022-07-23T08:30:42;8.23;;;7.53;;
53503;SDS011;39387;50.998;22.340;2022-07-23T08:33:12;8.57;;;7.88;;
53503;SDS011;39387;50.998;22.340;2022-07-23T08:35:42;9.18;;;8.15;;
53503;SDS011;39387;50.998;22.340;2022-07-23T08:38:12;8.95;;;8.05;;
53503;SDS011;39387;50.998;22.340;2022-07-23T08:40:43;8.07;;;7.28;;
53503;SDS011;39387;50.998;22.340;2022-07-23T08:43:12;8.18;;;7.47;;
53503;SDS011;39387;50.998;22.340;2022-07-23T08:45:41;8.52;;;7.72;;
53503;SDS011;39387;50.998;22.340;2022-07-23T08:48:12;8.43;;;7.63;;
53503;SDS011;39387;50.998;22.340;2022-07-23T08:50:42;8.55;;;7.80;;
53503;SDS011;39387;50.998;22.340;2022-07-23T08:53:10;8.40;;;7.70;;
53503;SDS011;39387;50.998;22.340;2022-07-23T08:55:37;8.73;;;7.95;;
53503;SDS011;39387;50.998;22.340;2022-07-23T08:58:05;7.80;;;7.10;;
53503;SDS011;39387;50.998;22.340;2022-07-23T09:00:33;8.23;;;7.53;;
53503;SDS011;39387;50.998;22.340;2022-07-23T09:03:00;8.35;;;7.65;;
53503;SDS011;39387;50.998;22.340;2022-07-23T09:05:36;8.20;;;7.53;;
53503;SDS011;39387;50.998;22.340;2022-07-23T09:08:10;7.80;;;7.10;;
53503;SDS011;39387;50.998;22.340;2022-07-23T09:10:43;8.00;;;7.28;;
53503;SDS011;39387;50.998;22.340;2022-07-23T09:13:26;7.93;;;7.22;;
53503;SDS011;39387;50.998;22.340;2022-07-23T09:15:59;8.00;;;7.30;;
53503;SDS011;39387;50.998;22.340;2022-07-23T09:18:28;7.72;;;7.13;;
53503;SDS011;39387;50.998;22.340;2022-07-23T09:21:12;7.63;;;6.93;;
53503;SDS011;39387;50.998;22.340;2022-07-23T09:23:53;7.47;;;6.82;;
53503;SDS011;39387;50.998;22.340;2022-07-23T09:26:23;7.60;;;6.90;;
53503;SDS011;39387;50.998;22.340;2022-07-23T09:29:00;7.30;;;6.70;;
53503;SDS011;39387;50.998;22.340;2022-07-23T09:31:33;7.57;;;6.90;;
53503;SDS011;39387;50.998;22.340;2022-07-23T09:34:09;7.20;;;6.60;;
53503;SDS011;39387;50.998;22.340;2022-07-23T09:36:42;7.13;;;6.43;;
53503;SDS011;39387;50.998;22.340;2022-07-23T09:41:38;7.38;;;6.68;;
53503;SDS011;39387;50.998;22.340;2022-07-23T09:44:08;8.05;;;7.25;;
53503;SDS011;39387;50.998;22.340;2022-07-23T09:49:09;7.82;;;7.13;;
53503;SDS011;39387;50.998;22.340;2022-07-23T09:51:44;7.53;;;6.93;;
53503;SDS011;39387;50.998;22.340;2022-07-23T09:54:23;8.93;;;8.02;;
53503;SDS011;39387;50.998;22.340;2022-07-23T09:56:59;8.15;;;7.35;;
53503;SDS011;39387;50.998;22.340;2022-07-23T09:59:30;7.43;;;6.82;;
53503;SDS011;39387;50.998;22.340;2022-07-23T10:04:27;7.88;;;7.18;;
53503;SDS011;39387;50.998;22.340;2022-07-23T10:06:57;7.25;;;6.65;;
53503;SDS011;39387;50.998;22.340;2022-07-23T10:09:26;8.20;;;7.50;;
53503;SDS011;39387;50.998;22.340;2022-07-23T10:11:56;8.35;;;7.55;;
53503;SDS011;39387;50.998;22.340;2022-07-23T10:14:28;11.73;;;7.50;;
53503;SDS011;39387;50.998;22.340;2022-07-23T10:19:25;7.60;;;6.97;;
53503;SDS011;39387;50.998;22.340;2022-07-23T10:21:54;7.57;;;6.88;;
53503;SDS011;39387;50.998;22.340;2022-07-23T10:24:28;8.18;;;7.43;;
53503;SDS011;39387;50.998;22.340;2022-07-23T10:27:04;7.78;;;6.97;;
53503;SDS011;39387;50.998;22.340;2022-07-23T10:29:40;8.60;;;7.90;;
53503;SDS011;39387;50.998;22.340;2022-07-23T10:32:17;7.63;;;6.97;;
53503;SDS011;39387;50.998;22.340;2022-07-23T10:34:51;8.85;;;8.02;;
53503;SDS011;39387;50.998;22.340;2022-07-23T10:37:23;8.50;;;7.80;;
53503;SDS011;39387;50.998;22.340;2022-07-23T10:40:08;8.25;;;7.55;;
53503;SDS011;39387;50.998;22.340;2022-07-23T10:42:37;8.23;;;7.50;;
53503;SDS011;39387;50.998;22.340;2022-07-23T10:47:55;9.02;;;7.15;;
53503;SDS011;39387;50.998;22.340;2022-07-23T10:50:23;8.35;;;7.65;;
53503;SDS011;39387;50.998;22.340;2022-07-23T10:53:10;8.25;;;7.55;;
53503;SDS011;39387;50.998;22.340;2022-07-23T10:55:45;8.07;;;7.07;;
53503;SDS011;39387;50.998;22.340;2022-07-23T10:58:21;7.30;;;6.70;;
53503;SDS011;39387;50.998;22.340;2022-07-23T11:00:50;8.20;;;7.50;;
53503;SDS011;39387;50.998;22.340;2022-07-23T11:03:31;7.68;;;7.07;;
53503;SDS011;39387;50.998;22.340;2022-07-23T11:06:02;7.85;;;7.05;;
53503;SDS011;39387;50.998;22.340;2022-07-23T11:08:31;8.15;;;7.35;;
53503;SDS011;39387;50.998;22.340;2022-07-23T11:11:08;9.00;;;8.10;;
53503;SDS011;39387;50.998;22.340;2022-07-23T11:13:38;17.27;;;8.63;;
53503;SDS011;39387;50.998;22.340;2022-07-23T11:16:13;12.93;;;7.75;;
53503;SDS011;39387;50.998;22.340;2022-07-23T11:18:56;14.73;;;7.78;;
53503;SDS011;39387;50.998;22.340;2022-07-23T11:21:41;10.13;;;7.40;;
53503;SDS011;39387;50.998;22.340;2022-07-23T11:24:11;8.02;;;7.22;;
53503;SDS011;39387;50.998;22.340;2022-07-23T11:29:50;7.57;;;6.97;;
53503;SDS011;39387;50.998;22.340;2022-07-23T11:35:18;8.48;;;7.78;;
53503;SDS011;39387;50.998;22.340;2022-07-23T11:37:47;7.70;;;6.90;;
53503;SDS011;39387;50.998;22.340;2022-07-23T11:40:16;7.32;;;6.72;;
53503;SDS011;39387;50.998;22.340;2022-07-23T11:42:54;8.63;;;7.78;;
53503;SDS011;39387;50.998;22.340;2022-07-23T11:45:25;8.80;;;6.97;;
53503;SDS011;39387;50.998;22.340;2022-07-23T11:47:56;8.45;;;7.50;;
53503;SDS011;39387;50.998;22.340;2022-07-23T11:50:24;8.02;;;7.32;;
53503;SDS011;39387;50.998;22.340;2022-07-23T11:52:52;7.65;;;6.82;;
53503;SDS011;39387;50.998;22.340;2022-07-23T11:55:21;25.08;;;8.00;;
53503;SDS011;39387;50.998;22.340;2022-07-23T11:57:50;10.63;;;7.30;;
53503;SDS011;39387;50.998;22.340;2022-07-23T12:00:19;7.15;;;6.50;;
53503;SDS011;39387;50.998;22.340;2022-07-23T12:02:48;6.85;;;6.22;;
53503;SDS011;39387;50.998;22.340;2022-07-23T12:05:17;7.23;;;6.73;;
53503;SDS011;39387;50.998;22.340;2022-07-23T12:07:46;7.67;;;7.03;;
53503;SDS011;39387;50.998;22.340;2022-07-23T12:10:17;7.38;;;6.78;;
53503;SDS011;39387;50.998;22.340;2022-07-23T12:12:48;7.82;;;7.13;;
53503;SDS011;39387;50.998;22.340;2022-07-23T12:15:17;7.65;;;6.95;;
53503;SDS011;39387;50.998;22.340;2022-07-23T12:17:47;7.30;;;6.70;;
53503;SDS011;39387;50.998;22.340;2022-07-23T12:20:16;7.97;;;7.38;;
53503;SDS011;39387;50.998;22.340;2022-07-23T12:22:44;7.95;;;7.30;;
53503;SDS011;39387;50.998;22.340;2022-07-23T12:25:14;7.45;;;6.70;;
53503;SDS011;39387;50.998;22.340;2022-07-23T12:27:42;7.77;;;7.17;;
53503;SDS011;39387;50.998;22.340;2022-07-23T12:30:21;7.30;;;6.70;;
53503;SDS011;39387;50.998;22.340;2022-07-23T12:32:54;7.55;;;6.95;;
53503;SDS011;39387;50.998;22.340;2022-07-23T12:35:28;7.22;;;6.63;;
53503;SDS011;39387;50.998;22.340;2022-07-23T12:37:59;7.80;;;7.00;;
53503;SDS011;39387;50.998;22.340;2022-07-23T12:42:55;7.90;;;7.10;;
53503;SDS011;39387;50.998;22.340;2022-07-23T12:45:26;8.05;;;7.35;;
53503;SDS011;39387;50.998;22.340;2022-07-23T12:50:38;8.20;;;7.53;;
53503;SDS011;39387;50.998;22.340;2022-07-23T12:53:08;8.38;;;7.57;;
53503;SDS011;39387;50.998;22.340;2022-07-23T12:55:37;8.60;;;7.80;;
53503;SDS011;39387;50.998;22.340;2022-07-23T12:58:09;8.55;;;7.72;;
53503;SDS011;39387;50.998;22.340;2022-07-23T13:03:35;7.80;;;7.10;;
53503;SDS011;39387;50.998;22.340;2022-07-23T13:06:06;8.27;;;7.57;;
53503;SDS011;39387;50.998;22.340;2022-07-23T13:08:34;7.78;;;7.13;;
53503;SDS011;39387;50.998;22.340;2022-07-23T13:11:03;7.63;;;7.00;;
53503;SDS011;39387;50.998;22.340;2022-07-23T13:13:32;8.27;;;7.60;;
53503;SDS011;39387;50.998;22.340;2022-07-23T13:16:00;8.03;;;7.23;;
53503;SDS011;39387;50.998;22.340;2022-07-23T13:18:29;7.93;;;7.22;;
53503;SDS011;39387;50.998;22.340;2022-07-23T13:20:56;8.65;;;7.85;;
53503;SDS011;39387;50.998;22.340;2022-07-23T13:23:24;7.70;;;7.10;;
53503;SDS011;39387;50.998;22.340;2022-07-23T13:25:51;7.60;;;6.90;;
53503;SDS011;39387;50.998;22.340;2022-07-23T13:28:19;7.70;;;7.10;;
53503;SDS011;39387;50.998;22.340;2022-07-23T13:30:47;7.20;;;6.60;;
53503;SDS011;39387;50.998;22.340;2022-07-23T13:33:16;7.68;;;6.97;;
53503;SDS011;39387;50.998;22.340;2022-07-23T13:35:46;7.90;;;7.30;;
53503;SDS011;39387;50.998;22.340;2022-07-23T13:38:13;8.38;;;7.75;;
53503;SDS011;39387;50.998;22.340;2022-07-23T13:40:42;7.85;;;7.25;;
53503;SDS011;39387;50.998;22.340;2022-07-23T13:43:12;7.40;;;6.60;;
53503;SDS011;39387;50.998;22.340;2022-07-23T13:45:40;7.00;;;6.40;;
53503;SDS011;39387;50.998;22.340;2022-07-23T13:48:09;7.23;;;6.60;;
53503;SDS011;39387;50.998;22.340;2022-07-23T13:50:38;7.30;;;6.70;;
53503;SDS011;39387;50.998;22.340;2022-07-23T13:53:07;7.18;;;6.68;;
53503;SDS011;39387;50.998;22.340;2022-07-23T13:55:36;7.65;;;6.95;;
53503;SDS011;39387;50.998;22.340;2022-07-23T13:58:05;7.17;;;6.57;;
53503;SDS011;39387;50.998;22.340;2022-07-23T14:00:34;7.45;;;6.85;;
53503;SDS011;39387;50.998;22.340;2022-07-23T14:03:02;8.00;;;7.30;;
53503;SDS011;39387;50.998;22.340;2022-07-23T14:05:30;7.53;;;6.90;;
53503;SDS011;39387;50.998;22.340;2022-07-23T14:07:58;6.93;;;6.32;;
53503;SDS011;39387;50.998;22.340;2022-07-23T14:10:27;7.28;;;6.68;;
53503;SDS011;39387;50.998;22.340;2022-07-23T14:12:54;6.88;;;6.38;;
53503;SDS011;39387;50.998;22.340;2022-07-23T14:15:23;7.23;;;6.63;;
53503;SDS011;39387;50.998;22.340;2022-07-23T14:17:52;7.20;;;6.60;;
53503;SDS011;39387;50.998;22.340;2022-07-23T14:20:20;7.13;;;6.53;;
53503;SDS011;39387;50.998;22.340;2022-07-23T14:22:48;7.35;;;6.75;;
53503;SDS011;39387;50.998;22.340;2022-07-23T14:25:16;7.22;;;6.63;;
53503;SDS011;39387;50.998;22.340;2022-07-23T14:27:45;7.25;;;6.55;;
53503;SDS011;39387;50.998;22.340;2022-07-23T14:30:12;6.85;;;6.30;;
53503;SDS011;39387;50.998;22.340;2022-07-23T14:32:40;7.22;;;6.53;;
53503;SDS011;39387;50.998;22.340;2022-07-23T14:35:08;7.10;;;6.40;;
53503;SDS011;39387;50.998;22.340;2022-07-23T14:37:35;7.25;;;6.65;;
53503;SDS011;39387;50.998;22.340;2022-07-23T14:40:03;6.63;;;6.03;;
53503;SDS011;39387;50.998;22.340;2022-07-23T14:42:32;6.57;;;5.97;;
53503;SDS011;39387;50.998;22.340;2022-07-23T14:45:01;7.00;;;6.50;;
53503;SDS011;39387;50.998;22.340;2022-07-23T14:47:30;6.35;;;5.85;;
53503;SDS011;39387;50.998;22.340;2022-07-23T14:49:58;6.55;;;6.00;;
53503;SDS011;39387;50.998;22.340;2022-07-23T14:52:25;6.65;;;6.00;;
53503;SDS011;39387;50.998;22.340;2022-07-23T14:54:53;6.63;;;5.82;;
53503;SDS011;39387;50.998;22.340;2022-07-23T14:57:22;6.50;;;5.90;;
53503;SDS011;39387;50.998;22.340;2022-07-23T14:59:49;6.45;;;5.93;;
53503;SDS011;39387;50.998;22.340;2022-07-23T15:02:18;6.53;;;6.03;;